W67 EFKT-EFRO
Flight info
| Callsign | W67 |
|---|---|
| Flight time | 0h 32m |
| Altitude | 21000 |
| Route | TUGPU DCT OSLIT |
| Aircraft | LJ35/M-SGHRWXY/SB1 |
Departure
| Time | 2026-04-26 20:00 |
|---|---|
| Airport | Kittilä International Airport (EFKT) |
Arrival
| Time | 2026-04-26 20:32 |
|---|---|
| Airport | Rovaniemi Airport (EFRO) |
| Time | Latitude | Longitude | Altitude | Speed | Heading |
|---|---|---|---|---|---|
| 2026-04-26 19:47 | 67.69760 | 24.85562 | 633 ft | 0 kts | 77° |
| 2026-04-26 19:58 | 67.69773 | 24.85556 | 633 ft | 7 kts | 289° |
| 2026-04-26 19:58 | 67.69763 | 24.85391 | 636 ft | 14 kts | 187° |
| 2026-04-26 19:58 | 67.69624 | 24.85448 | 636 ft | 27 kts | 168° |
| 2026-04-26 19:59 | 67.69510 | 24.85121 | 640 ft | 27 kts | 284° |
| 2026-04-26 19:59 | 67.69538 | 24.85054 | 640 ft | 0 kts | 351° |
| 2026-04-26 19:59 | 67.69792 | 24.84890 | 637 ft | 104 kts | 346° |
| 2026-04-26 19:59 | 67.70915 | 24.84223 | 960 ft | 212 kts | 347° |
| 2026-04-26 20:00 | 67.72481 | 24.83429 | 2690 ft | 236 kts | 349° |
| 2026-04-26 20:00 | 67.74175 | 24.82845 | 4335 ft | 237 kts | 1° |
| 2026-04-26 20:00 | 67.75734 | 24.84191 | 5442 ft | 251 kts | 33° |
| 2026-04-26 20:00 | 67.76844 | 24.87894 | 7293 ft | 268 kts | 62° |
| 2026-04-26 20:01 | 67.77175 | 24.92814 | 9199 ft | 283 kts | 90° |
| 2026-04-26 20:01 | 67.76604 | 24.97962 | 11107 ft | 306 kts | 116° |
| 2026-04-26 20:01 | 67.75196 | 25.02342 | 13001 ft | 311 kts | 146° |
| 2026-04-26 20:01 | 67.73641 | 25.03261 | 17159 ft | 200 kts | 176° |
| 2026-04-26 20:02 | 67.72240 | 25.04101 | 18787 ft | 220 kts | 160° |
| 2026-04-26 20:02 | 67.70763 | 25.05938 | 19491 ft | 249 kts | 150° |
| 2026-04-26 20:02 | 67.69083 | 25.07799 | 20248 ft | 277 kts | 164° |
| 2026-04-26 20:02 | 67.67809 | 25.08632 | 20780 ft | 293 kts | 167° |
| 2026-04-26 20:03 | 67.64868 | 25.10528 | 20941 ft | 358 kts | 166° |
| 2026-04-26 20:03 | 67.62293 | 25.12197 | 20952 ft | 403 kts | 166° |
| 2026-04-26 20:03 | 67.59537 | 25.13942 | 20954 ft | 403 kts | 166° |
| 2026-04-26 20:03 | 67.56851 | 25.15635 | 20945 ft | 391 kts | 166° |
| 2026-04-26 20:04 | 67.54240 | 25.17288 | 20941 ft | 381 kts | 166° |
| 2026-04-26 20:04 | 67.51689 | 25.18910 | 20938 ft | 374 kts | 166° |
| 2026-04-26 20:04 | 67.49186 | 25.20539 | 20938 ft | 368 kts | 166° |
| 2026-04-26 20:04 | 67.46721 | 25.22148 | 20945 ft | 363 kts | 166° |
| 2026-04-26 20:05 | 67.44308 | 25.23697 | 20946 ft | 363 kts | 166° |
| 2026-04-26 20:05 | 67.41851 | 25.25266 | 20950 ft | 364 kts | 166° |
| 2026-04-26 20:05 | 67.39388 | 25.26847 | 20954 ft | 365 kts | 166° |
| 2026-04-26 20:05 | 67.36917 | 25.28433 | 20961 ft | 366 kts | 166° |
| 2026-04-26 20:06 | 67.34441 | 25.30015 | 20958 ft | 367 kts | 166° |
| 2026-04-26 20:06 | 67.31957 | 25.31594 | 20956 ft | 368 kts | 166° |
| 2026-04-26 20:06 | 67.29507 | 25.33130 | 20664 ft | 358 kts | 168° |
| 2026-04-26 20:06 | 67.27017 | 25.33787 | 19838 ft | 359 kts | 178° |
| 2026-04-26 20:07 | 67.24539 | 25.34168 | 19207 ft | 355 kts | 177° |
| 2026-04-26 20:07 | 67.22084 | 25.34630 | 18651 ft | 353 kts | 176° |
| 2026-04-26 20:07 | 67.19650 | 25.35064 | 18193 ft | 349 kts | 177° |
| 2026-04-26 20:07 | 67.17234 | 25.35458 | 17671 ft | 346 kts | 177° |
| 2026-04-26 20:08 | 67.14842 | 25.35854 | 17185 ft | 343 kts | 177° |
| 2026-04-26 20:08 | 67.12470 | 25.36259 | 16713 ft | 340 kts | 177° |
| 2026-04-26 20:08 | 67.10121 | 25.36659 | 16258 ft | 337 kts | 178° |
| 2026-04-26 20:08 | 67.07792 | 25.37049 | 15813 ft | 334 kts | 178° |
| 2026-04-26 20:09 | 67.05481 | 25.37437 | 15399 ft | 331 kts | 178° |
| 2026-04-26 20:09 | 67.03190 | 25.37819 | 14980 ft | 329 kts | 178° |
| 2026-04-26 20:09 | 67.00915 | 25.38201 | 14580 ft | 326 kts | 178° |
| 2026-04-26 20:09 | 66.98658 | 25.38579 | 14194 ft | 324 kts | 178° |
| 2026-04-26 20:10 | 66.96420 | 25.38951 | 13820 ft | 321 kts | 178° |
| 2026-04-26 20:10 | 66.94194 | 25.39321 | 13415 ft | 319 kts | 178° |
| 2026-04-26 20:10 | 66.91977 | 25.39688 | 12995 ft | 318 kts | 178° |
| 2026-04-26 20:10 | 66.89778 | 25.40052 | 12592 ft | 316 kts | 178° |
| 2026-04-26 20:11 | 66.87585 | 25.40416 | 12207 ft | 315 kts | 178° |
| 2026-04-26 20:11 | 66.85406 | 25.40641 | 11829 ft | 312 kts | 182° |
| 2026-04-26 20:11 | 66.83240 | 25.40538 | 11458 ft | 311 kts | 182° |
| 2026-04-26 20:12 | 66.78936 | 25.40391 | 10587 ft | 308 kts | 181° |
| 2026-04-26 20:12 | 66.76826 | 25.40324 | 10176 ft | 306 kts | 181° |
| 2026-04-26 20:12 | 66.74700 | 25.40248 | 9746 ft | 305 kts | 181° |
| 2026-04-26 20:12 | 66.72583 | 25.40174 | 9292 ft | 304 kts | 181° |
| 2026-04-26 20:13 | 66.70474 | 25.40103 | 8856 ft | 302 kts | 181° |
| 2026-04-26 20:13 | 66.68372 | 25.40035 | 8433 ft | 301 kts | 181° |
| 2026-04-26 20:13 | 66.66283 | 25.39967 | 7990 ft | 300 kts | 181° |
| 2026-04-26 20:13 | 66.64200 | 25.39900 | 7569 ft | 299 kts | 181° |
| 2026-04-26 20:14 | 66.62120 | 25.39828 | 7163 ft | 298 kts | 181° |
| 2026-04-26 20:14 | 66.60053 | 25.39759 | 6769 ft | 297 kts | 181° |
| 2026-04-26 20:14 | 66.57995 | 25.39692 | 6365 ft | 294 kts | 181° |
| 2026-04-26 20:14 | 66.55941 | 25.39623 | 5766 ft | 294 kts | 181° |
| 2026-04-26 20:15 | 66.53932 | 25.39555 | 5267 ft | 291 kts | 181° |
| 2026-04-26 20:15 | 66.51909 | 25.39490 | 4756 ft | 290 kts | 181° |
| 2026-04-26 20:15 | 66.49898 | 25.39587 | 4229 ft | 289 kts | 173° |
| 2026-04-26 20:15 | 66.47971 | 25.40913 | 3802 ft | 288 kts | 156° |
| 2026-04-26 20:16 | 66.46257 | 25.43405 | 3522 ft | 283 kts | 140° |
| 2026-04-26 20:16 | 66.44876 | 25.46860 | 3215 ft | 279 kts | 125° |
| 2026-04-26 20:16 | 66.43722 | 25.50748 | 2908 ft | 278 kts | 124° |
| 2026-04-26 20:16 | 66.42595 | 25.54492 | 2627 ft | 277 kts | 124° |
| 2026-04-26 20:17 | 66.42625 | 25.58843 | 1469 ft | 277 kts | 43° |
| 2026-04-26 20:17 | 66.44149 | 25.61291 | 1233 ft | 246 kts | 25° |
| 2026-04-26 20:17 | 66.45571 | 25.63005 | 1401 ft | 211 kts | 24° |
| 2026-04-26 20:17 | 66.46406 | 25.64087 | 1430 ft | 199 kts | 27° |
| 2026-04-26 20:18 | 66.47828 | 25.66593 | 1550 ft | 178 kts | 37° |
| 2026-04-26 20:18 | 66.48708 | 25.68564 | 1678 ft | 167 kts | 37° |
| 2026-04-26 20:18 | 66.49588 | 25.70492 | 1720 ft | 173 kts | 36° |
| 2026-04-26 20:18 | 66.50546 | 25.72376 | 1700 ft | 180 kts | 34° |
| 2026-04-26 20:19 | 66.51550 | 25.74288 | 1660 ft | 186 kts | 33° |
| 2026-04-26 20:19 | 66.52630 | 25.76259 | 1465 ft | 196 kts | 33° |
| 2026-04-26 20:19 | 66.53733 | 25.78306 | 1373 ft | 200 kts | 33° |
| 2026-04-26 20:19 | 66.54912 | 25.80389 | 1061 ft | 213 kts | 34° |
| 2026-04-26 20:20 | 66.56083 | 25.82583 | 958 ft | 207 kts | 37° |
| 2026-04-26 20:20 | 66.57170 | 25.84788 | 1046 ft | 195 kts | 38° |
| 2026-04-26 20:20 | 66.58245 | 25.85951 | 1649 ft | 153 kts | 345° |
| 2026-04-26 20:20 | 66.58829 | 25.83710 | 1630 ft | 187 kts | 275° |
| 2026-04-26 20:21 | 66.58211 | 25.80728 | 1329 ft | 207 kts | 222° |
| 2026-04-26 20:21 | 66.57055 | 25.78606 | 1266 ft | 203 kts | 216° |
| 2026-04-26 20:21 | 66.55885 | 25.76734 | 1290 ft | 194 kts | 212° |
| 2026-04-26 20:21 | 66.54774 | 25.75133 | 1376 ft | 175 kts | 212° |
| 2026-04-26 20:22 | 66.53691 | 25.74759 | 1251 ft | 156 kts | 157° |
| 2026-04-26 20:22 | 66.53439 | 25.77030 | 939 ft | 149 kts | 58° |
| 2026-04-26 20:22 | 66.54174 | 25.78763 | 803 ft | 148 kts | 33° |
| 2026-04-26 20:22 | 66.55027 | 25.80307 | 708 ft | 153 kts | 35° |
| 2026-04-26 20:23 | 66.55833 | 25.81808 | 614 ft | 138 kts | 38° |
| 2026-04-26 20:23 | 66.56614 | 25.83345 | 880 ft | 162 kts | 38° |
| 2026-04-26 20:23 | 66.57578 | 25.85367 | 1733 ft | 190 kts | 37° |
| 2026-04-26 20:23 | 66.57962 | 25.88371 | 2175 ft | 224 kts | 122° |
| 2026-04-26 20:24 | 66.56411 | 25.88776 | 1631 ft | 262 kts | 219° |
| 2026-04-26 20:24 | 66.55087 | 25.85630 | 1736 ft | 260 kts | 226° |
| 2026-04-26 20:24 | 66.53896 | 25.82771 | 1860 ft | 217 kts | 228° |
| 2026-04-26 20:24 | 66.52989 | 25.80085 | 1919 ft | 184 kts | 256° |
| 2026-04-26 20:25 | 66.53248 | 25.77511 | 1925 ft | 154 kts | 330° |
| 2026-04-26 20:25 | 66.53943 | 25.77548 | 1588 ft | 165 kts | 31° |
| 2026-04-26 20:25 | 66.55085 | 25.80363 | 775 ft | 171 kts | 36° |
| 2026-04-26 20:25 | 66.55986 | 25.82114 | 619 ft | 153 kts | 31° |
| 2026-04-26 20:26 | 66.56879 | 25.83822 | 828 ft | 194 kts | 37° |
| 2026-04-26 20:26 | 66.57846 | 25.85756 | 1799 ft | 157 kts | 36° |
| 2026-04-26 20:26 | 66.58360 | 25.87959 | 2432 ft | 180 kts | 95° |
| 2026-04-26 20:26 | 66.57146 | 25.89456 | 2522 ft | 241 kts | 204° |
| 2026-04-26 20:27 | 66.55770 | 25.87090 | 2359 ft | 232 kts | 219° |
| 2026-04-26 20:27 | 66.54537 | 25.84781 | 2365 ft | 209 kts | 220° |
| 2026-04-26 20:27 | 66.53475 | 25.82768 | 2385 ft | 168 kts | 221° |
| 2026-04-26 20:27 | 66.52716 | 25.80955 | 2110 ft | 131 kts | 256° |
| 2026-04-26 20:28 | 66.52907 | 25.79011 | 1770 ft | 119 kts | 322° |
| 2026-04-26 20:28 | 66.53644 | 25.78792 | 1446 ft | 118 kts | 19° |
| 2026-04-26 20:28 | 66.54398 | 25.79606 | 1034 ft | 124 kts | 23° |
| 2026-04-26 20:28 | 66.55179 | 25.80648 | 738 ft | 133 kts | 30° |
| 2026-04-26 20:29 | 66.55943 | 25.82018 | 623 ft | 133 kts | 36° |
| 2026-04-26 20:29 | 66.56695 | 25.83453 | 689 ft | 156 kts | 37° |
| 2026-04-26 20:29 | 66.57621 | 25.85349 | 1563 ft | 186 kts | 36° |
| 2026-04-26 20:29 | 66.58324 | 25.87671 | 2273 ft | 180 kts | 72° |
| 2026-04-26 20:30 | 66.57574 | 25.90128 | 2552 ft | 227 kts | 176° |
| 2026-04-26 20:30 | 66.55982 | 25.88685 | 2367 ft | 266 kts | 217° |
| 2026-04-26 20:30 | 66.54532 | 25.86161 | 2403 ft | 242 kts | 217° |
| 2026-04-26 20:30 | 66.53181 | 25.83819 | 2284 ft | 229 kts | 218° |
| 2026-04-26 20:31 | 66.52146 | 25.81110 | 2480 ft | 197 kts | 258° |
| 2026-04-26 20:31 | 66.52372 | 25.78372 | 2293 ft | 158 kts | 315° |
| 2026-04-26 20:31 | 66.53266 | 25.77108 | 1792 ft | 145 kts | 8° |
| 2026-04-26 20:31 | 66.54124 | 25.78571 | 1078 ft | 153 kts | 37° |
| 2026-04-26 20:32 | 66.54941 | 25.80150 | 731 ft | 144 kts | 36° |
| 2026-04-26 20:32 | 66.55742 | 25.81629 | 612 ft | 140 kts | 37° |
| 2026-04-26 20:32 | 66.56309 | 25.82696 | 628 ft | 67 kts | 37° |
| 2026-04-26 20:32 | 66.56553 | 25.83157 | 627 ft | 34 kts | 37° |
| 2026-04-26 20:33 | 66.56713 | 25.83395 | 627 ft | 13 kts | 342° |
| 2026-04-26 20:33 | 66.56807 | 25.83332 | 631 ft | 14 kts | 335° |
| 2026-04-26 20:33 | 66.56903 | 25.83303 | 635 ft | 14 kts | 353° |
| 2026-04-26 20:33 | 66.57008 | 25.83271 | 637 ft | 10 kts | 349° |
| 2026-04-26 20:34 | 66.57020 | 25.83188 | 638 ft | 0 kts | 263° |